createdAt,value
2023-03-15T00:00:50.462Z,7.65
2023-03-15T00:03:19.745Z,7.64
2023-03-15T00:05:52.306Z,7.62
2023-03-15T00:08:21.863Z,7.61
2023-03-15T00:10:50.044Z,7.58
2023-03-15T00:13:18.553Z,7.61
2023-03-15T00:15:48.182Z,7.58
2023-03-15T00:18:16.831Z,7.58
2023-03-15T00:20:45.193Z,7.54
2023-03-15T00:23:16.002Z,7.53
2023-03-15T00:25:46.159Z,7.51
2023-03-15T00:28:14.619Z,7.54
2023-03-15T00:30:43.120Z,7.52
2023-03-15T00:33:13.874Z,7.50
2023-03-15T00:35:43.769Z,7.46
2023-03-15T00:38:13.641Z,7.50
2023-03-15T00:40:44.457Z,7.51
2023-03-15T00:43:18.031Z,7.50
2023-03-15T00:45:46.470Z,7.53
2023-03-15T00:48:14.333Z,7.53
2023-03-15T00:50:43.814Z,7.52
2023-03-15T00:53:12.037Z,7.50
2023-03-15T00:55:39.972Z,7.49
2023-03-15T00:58:09.244Z,7.41
2023-03-15T01:00:38.284Z,7.43
2023-03-15T01:03:10.834Z,7.43
2023-03-15T01:05:39.106Z,7.46
2023-03-15T01:08:07.744Z,7.44
2023-03-15T01:10:36.410Z,7.46
2023-03-15T01:13:04.643Z,7.46
2023-03-15T01:15:34.069Z,7.43
2023-03-15T01:18:02.109Z,7.42
2023-03-15T01:20:30.696Z,7.43
2023-03-15T01:22:58.671Z,7.38
2023-03-15T01:25:26.690Z,7.39
2023-03-15T01:27:55.348Z,7.37
2023-03-15T01:30:23.402Z,7.32
2023-03-15T01:32:52.712Z,7.28
2023-03-15T01:35:21.134Z,7.28
2023-03-15T01:37:50.648Z,7.27
2023-03-15T01:40:20.183Z,7.12
2023-03-15T01:43:15.016Z,7.16
2023-03-15T01:46:04.652Z,7.18
2023-03-15T01:48:38.206Z,7.12
2023-03-15T01:51:12.491Z,7.00
2023-03-15T01:53:44.889Z,7.04
2023-03-15T01:56:13.774Z,7.02
2023-03-15T01:58:46.454Z,7.05
2023-03-15T02:01:16.492Z,7.06
2023-03-15T02:03:51.586Z,7.02
2023-03-15T02:06:23.349Z,7.03
2023-03-15T02:08:57.963Z,7.01
2023-03-15T02:11:28.513Z,6.98
2023-03-15T02:13:58.836Z,6.96
2023-03-15T02:16:30.774Z,6.94
2023-03-15T02:19:00.944Z,6.96
2023-03-15T02:21:51.637Z,6.89
2023-03-15T02:24:35.058Z,6.96
2023-03-15T02:27:03.635Z,6.91
2023-03-15T02:29:33.786Z,6.91
2023-03-15T02:32:04.527Z,6.91
2023-03-15T02:34:33.231Z,6.87
2023-03-15T02:37:02.262Z,6.84
2023-03-15T02:39:30.461Z,6.75
2023-03-15T02:42:00.143Z,6.75
2023-03-15T02:44:32.614Z,6.66
2023-03-15T02:47:05.735Z,6.63
2023-03-15T02:49:38.729Z,6.57
2023-03-15T02:52:07.720Z,6.58
2023-03-15T02:54:36.106Z,6.56
2023-03-15T02:57:04.620Z,6.54
2023-03-15T02:59:33.706Z,6.54
2023-03-15T03:02:03.764Z,6.55
2023-03-15T03:04:31.815Z,6.56
2023-03-15T03:07:00.547Z,6.58
2023-03-15T03:09:32.665Z,6.62
2023-03-15T03:12:00.983Z,6.63
2023-03-15T03:14:29.372Z,6.63
2023-03-15T03:16:58.171Z,6.65
2023-03-15T03:19:27.950Z,6.58
2023-03-15T03:21:57.467Z,6.62
2023-03-15T03:24:27.394Z,6.64
2023-03-15T03:26:58.034Z,6.61
2023-03-15T03:29:27.976Z,6.60
2023-03-15T03:31:56.504Z,6.63
2023-03-15T03:34:24.513Z,6.63
2023-03-15T03:36:54.117Z,6.63
2023-03-15T03:39:23.407Z,6.64
2023-03-15T03:41:51.445Z,6.63
2023-03-15T03:44:20.634Z,6.61
2023-03-15T03:46:48.861Z,6.58
2023-03-15T03:49:16.946Z,6.56
2023-03-15T03:51:47.679Z,6.50
2023-03-15T03:54:17.725Z,6.51
2023-03-15T03:56:46.241Z,6.48
2023-03-15T03:59:14.430Z,6.49
2023-03-15T04:01:43.144Z,6.52
2023-03-15T04:04:14.279Z,6.53
2023-03-15T04:06:45.573Z,6.52
2023-03-15T04:09:14.754Z,6.52
2023-03-15T04:11:45.845Z,6.53
2023-03-15T04:14:15.772Z,6.52
2023-03-15T04:16:44.228Z,6.56
2023-03-15T04:19:13.787Z,6.57
2023-03-15T04:21:47.517Z,6.58
2023-03-15T04:24:16.264Z,6.56
2023-03-15T04:26:46.008Z,6.57
2023-03-15T04:29:15.627Z,6.58
2023-03-15T04:31:43.881Z,6.59
2023-03-15T04:34:13.482Z,6.58
2023-03-15T04:36:43.576Z,6.59
2023-03-15T04:39:12.661Z,6.58
2023-03-15T04:41:41.284Z,6.57
2023-03-15T04:44:10.683Z,6.60
2023-03-15T04:46:38.994Z,6.58
2023-03-15T04:49:07.453Z,6.60
2023-03-15T04:51:35.797Z,6.63
2023-03-15T04:54:04.392Z,6.62
2023-03-15T04:56:33.074Z,6.67
2023-03-15T04:59:01.774Z,6.67
2023-03-15T05:01:33.189Z,6.69
2023-03-15T05:04:01.592Z,6.72
2023-03-15T05:06:30.585Z,6.74
2023-03-15T05:08:59.022Z,6.76
2023-03-15T05:11:27.310Z,6.82
2023-03-15T05:13:55.969Z,6.87
2023-03-15T05:16:24.317Z,6.88
2023-03-15T05:18:57.171Z,6.96
2023-03-15T05:21:25.445Z,6.97
2023-03-15T05:23:53.737Z,7.05
2023-03-15T05:26:24.805Z,7.09
2023-03-15T05:28:53.479Z,7.08
2023-03-15T05:31:21.986Z,7.17
2023-03-15T05:33:54.412Z,7.23
2023-03-15T05:36:23.799Z,7.29
2023-03-15T05:38:53.660Z,7.34
2023-03-15T05:41:22.088Z,7.37
2023-03-15T05:43:50.522Z,7.39
2023-03-15T05:46:20.159Z,7.44
2023-03-15T05:48:51.593Z,7.48
2023-03-15T05:51:20.093Z,7.49
2023-03-15T05:53:49.487Z,7.55
2023-03-15T05:56:19.484Z,7.57
2023-03-15T05:58:47.617Z,7.62
2023-03-15T06:01:15.838Z,7.66
2023-03-15T06:03:44.804Z,7.72
2023-03-15T06:06:13.052Z,7.76
2023-03-15T06:08:41.213Z,7.78
2023-03-15T06:11:10.846Z,7.78
2023-03-15T06:13:41.163Z,7.83
2023-03-15T06:16:11.593Z,7.79
2023-03-15T06:18:40.714Z,7.76
2023-03-15T06:21:09.644Z,7.69
2023-03-15T06:23:38.438Z,7.58
2023-03-15T06:26:06.641Z,7.30
2023-03-15T06:28:37.302Z,7.35
2023-03-15T06:31:08.777Z,7.47
2023-03-15T06:33:38.551Z,7.51
2023-03-15T06:36:11.188Z,7.43
2023-03-15T06:38:39.961Z,7.53
2023-03-15T06:41:08.652Z,7.61
2023-03-15T06:43:38.370Z,7.65
2023-03-15T06:46:07.106Z,7.64
2023-03-15T06:48:36.063Z,7.55
2023-03-15T06:51:05.964Z,7.72
2023-03-15T06:53:37.428Z,7.74
2023-03-15T06:56:06.051Z,7.74
2023-03-15T06:58:34.407Z,7.71
2023-03-15T07:01:03.840Z,7.65
2023-03-15T07:03:31.971Z,7.71
2023-03-15T07:06:00.154Z,7.62
2023-03-15T07:08:28.142Z,7.74
2023-03-15T07:10:56.326Z,7.79
2023-03-15T07:13:24.821Z,7.82
2023-03-15T07:15:54.072Z,7.84
2023-03-15T07:18:24.237Z,7.92
2023-03-15T07:21:00.139Z,7.95
2023-03-15T07:23:29.267Z,7.90
2023-03-15T07:25:58.207Z,7.96
2023-03-15T07:28:27.935Z,7.83
2023-03-15T07:30:57.747Z,7.99
2023-03-15T07:33:27.964Z,8.02
2023-03-15T07:35:56.662Z,8.09
2023-03-15T07:38:26.045Z,8.21
2023-03-15T07:40:54.406Z,8.18
2023-03-15T07:43:24.588Z,8.28
2023-03-15T07:45:59.653Z,8.23
2023-03-15T07:48:30.201Z,8.30
2023-03-15T07:50:58.410Z,8.24
2023-03-15T07:53:26.781Z,8.32
2023-03-15T07:55:55.483Z,8.32
2023-03-15T07:58:24.186Z,8.35
2023-03-15T08:00:55.867Z,8.37
2023-03-15T08:03:24.513Z,8.54
2023-03-15T08:05:54.139Z,8.77
2023-03-15T08:08:22.242Z,9.03
2023-03-15T08:10:50.467Z,9.27
2023-03-15T08:13:18.819Z,9.55
2023-03-15T08:15:47.531Z,9.58
2023-03-15T08:18:15.900Z,9.67
2023-03-15T08:20:44.081Z,9.66
2023-03-15T08:23:16.285Z,9.89
2023-03-15T08:25:45.023Z,9.88
2023-03-15T08:28:13.044Z,10.03
2023-03-15T08:30:41.357Z,10.25
2023-03-15T08:33:10.437Z,10.31
2023-03-15T08:35:38.499Z,10.21
2023-03-15T08:38:06.509Z,10.75
2023-03-15T08:40:36.730Z,10.89
2023-03-15T08:43:05.659Z,11.00
2023-03-15T08:45:51.022Z,11.11
2023-03-15T08:48:21.664Z,11.09
2023-03-15T08:50:49.689Z,11.07
2023-03-15T08:53:17.678Z,11.20
2023-03-15T08:55:48.716Z,10.90
2023-03-15T08:58:16.845Z,10.79
2023-03-15T09:00:44.867Z,11.00
2023-03-15T09:03:13.467Z,11.41
2023-03-15T09:05:44.492Z,11.38
2023-03-15T09:08:14.058Z,11.69
2023-03-15T09:10:41.989Z,11.33
2023-03-15T09:13:11.213Z,11.46
2023-03-15T09:15:39.558Z,11.34
2023-03-15T09:18:07.467Z,11.13
2023-03-15T09:20:35.562Z,11.37
2023-03-15T09:23:03.768Z,11.48
2023-03-15T09:25:31.873Z,11.52
2023-03-15T09:27:59.975Z,11.30
2023-03-15T09:30:29.895Z,11.46
2023-03-15T09:32:58.046Z,11.70
2023-03-15T09:35:26.254Z,11.93
2023-03-15T09:37:54.548Z,12.19
2023-03-15T09:40:26.893Z,11.84
2023-03-15T09:43:19.263Z,12.47
2023-03-15T09:46:05.440Z,12.98
2023-03-15T09:48:37.967Z,13.49
2023-03-15T09:51:11.631Z,13.31
2023-03-15T09:53:43.913Z,12.67
2023-03-15T09:56:23.558Z,12.72
2023-03-15T09:58:55.142Z,12.56
2023-03-15T10:01:30.838Z,12.50
2023-03-15T10:04:00.859Z,12.53
2023-03-15T10:06:36.519Z,12.70
2023-03-15T10:09:14.889Z,12.59
2023-03-15T10:11:51.016Z,12.42
2023-03-15T10:14:28.160Z,12.53
2023-03-15T10:16:57.410Z,12.58
2023-03-15T10:19:33.281Z,12.26
2023-03-15T10:22:04.902Z,11.84
2023-03-15T10:24:39.648Z,12.26
2023-03-15T10:27:17.063Z,11.61
2023-03-15T10:29:45.973Z,11.70
2023-03-15T10:32:19.273Z,11.85
2023-03-15T10:34:50.709Z,11.92
2023-03-15T10:37:19.134Z,11.78
2023-03-15T10:39:50.484Z,11.85
2023-03-15T10:42:30.409Z,11.66
2023-03-15T10:45:00.245Z,11.92
2023-03-15T10:47:29.534Z,11.83
2023-03-15T10:49:59.277Z,12.05
2023-03-15T10:52:35.574Z,11.73
2023-03-15T10:55:06.967Z,12.12
2023-03-15T10:57:40.056Z,11.80
2023-03-15T11:00:27.346Z,11.59
2023-03-15T11:03:05.629Z,12.12
2023-03-15T11:05:41.119Z,12.19
2023-03-15T11:08:15.217Z,12.28
2023-03-15T11:10:45.178Z,12.51
2023-03-15T11:13:19.784Z,12.85
2023-03-15T11:16:01.402Z,12.71
2023-03-15T11:18:37.316Z,12.49
2023-03-15T11:21:09.706Z,12.60
2023-03-15T11:23:40.560Z,13.24
2023-03-15T11:26:29.286Z,13.77
2023-03-15T11:29:01.926Z,14.28
2023-03-15T11:31:31.262Z,14.36
2023-03-15T11:34:04.516Z,14.11
2023-03-15T11:36:37.824Z,14.21
2023-03-15T11:39:06.755Z,14.01
2023-03-15T11:41:38.093Z,14.00
2023-03-15T11:44:17.322Z,13.51
2023-03-15T11:46:50.564Z,13.77
2023-03-15T11:49:28.559Z,13.89
2023-03-15T11:51:57.694Z,13.77
2023-03-15T11:54:29.744Z,13.73
2023-03-15T11:57:05.357Z,13.33
2023-03-15T11:59:36.684Z,13.54
2023-03-15T12:02:40.453Z,13.29
2023-03-15T12:05:43.990Z,13.51
2023-03-15T12:08:25.757Z,13.59
2023-03-15T12:10:54.323Z,13.48
2023-03-15T12:13:27.834Z,13.49
2023-03-15T12:15:56.670Z,12.92
2023-03-15T12:18:32.223Z,12.91
2023-03-15T12:21:12.017Z,12.75
2023-03-15T12:23:44.107Z,12.83
2023-03-15T12:26:25.659Z,13.10
2023-03-15T12:29:04.010Z,13.22
2023-03-15T12:31:53.571Z,13.44
2023-03-15T12:34:34.697Z,13.57
2023-03-15T12:37:08.057Z,13.78
2023-03-15T12:39:46.071Z,13.86
2023-03-15T12:42:36.257Z,13.61
2023-03-15T12:45:37.486Z,13.90
2023-03-15T12:48:23.021Z,14.23
2023-03-15T12:50:54.284Z,14.16
2023-03-15T12:53:28.277Z,14.12
2023-03-15T12:56:08.042Z,14.21
2023-03-15T12:58:38.185Z,14.16
2023-03-15T13:01:08.993Z,14.10
2023-03-15T13:03:37.494Z,14.61
2023-03-15T13:06:14.427Z,15.10
2023-03-15T13:08:48.391Z,15.38
2023-03-15T13:11:25.698Z,15.56
2023-03-15T13:14:09.373Z,15.62
2023-03-15T13:16:45.193Z,15.50
2023-03-15T13:19:19.886Z,14.70
2023-03-15T13:22:02.842Z,14.47
2023-03-15T13:24:42.686Z,14.51
2023-03-15T13:27:19.413Z,14.09
2023-03-15T13:29:47.909Z,14.38
2023-03-15T13:32:20.880Z,14.61
2023-03-15T13:34:49.935Z,14.25
2023-03-15T13:37:22.184Z,14.48
2023-03-15T13:39:58.665Z,14.52
2023-03-15T13:42:26.731Z,14.56
2023-03-15T13:45:12.419Z,14.35
2023-03-15T13:47:43.734Z,14.12
2023-03-15T13:50:16.245Z,14.23
2023-03-15T13:52:45.061Z,14.37
2023-03-15T13:55:17.862Z,14.52
2023-03-15T13:57:45.870Z,14.65
2023-03-15T14:00:19.137Z,14.92
2023-03-15T14:02:54.128Z,15.09
2023-03-15T14:05:28.035Z,14.88
2023-03-15T14:08:02.700Z,15.01
2023-03-15T14:10:32.538Z,14.64
2023-03-15T14:13:18.033Z,14.89
2023-03-15T14:15:47.964Z,15.03
2023-03-15T14:18:25.219Z,14.72
2023-03-15T14:20:59.904Z,15.08
2023-03-15T14:23:29.799Z,14.77
2023-03-15T14:26:05.567Z,14.88
2023-03-15T14:28:34.684Z,14.76
2023-03-15T14:31:04.278Z,14.27
2023-03-15T14:33:40.796Z,14.21
2023-03-15T14:36:22.258Z,13.80
2023-03-15T14:38:52.415Z,13.23
2023-03-15T14:41:26.309Z,13.16
2023-03-15T14:43:54.718Z,13.14
2023-03-15T14:46:22.931Z,13.07
2023-03-15T14:48:52.787Z,13.35
2023-03-15T14:51:23.563Z,13.69
2023-03-15T14:53:54.334Z,13.71
2023-03-15T14:56:22.225Z,13.87
2023-03-15T14:58:54.072Z,13.88
2023-03-15T15:01:26.375Z,13.77
2023-03-15T15:04:00.670Z,13.60
2023-03-15T15:06:31.845Z,13.29
2023-03-15T15:09:01.665Z,13.41
2023-03-15T15:11:30.146Z,13.26
2023-03-15T15:13:58.627Z,13.39
2023-03-15T15:16:26.899Z,13.42
2023-03-15T15:18:56.555Z,13.30
2023-03-15T15:21:26.930Z,13.30
2023-03-15T15:23:59.133Z,13.31
2023-03-15T15:26:30.350Z,13.48
2023-03-15T15:28:59.450Z,13.19
2023-03-15T15:31:34.303Z,13.31
2023-03-15T15:34:05.218Z,13.37
2023-03-15T15:36:36.284Z,13.49
2023-03-15T15:39:11.618Z,13.51
2023-03-15T15:41:39.928Z,13.50
2023-03-15T15:44:14.835Z,13.28
2023-03-15T15:46:42.819Z,13.12
2023-03-15T15:49:12.673Z,13.27
2023-03-15T15:51:45.541Z,13.40
2023-03-15T15:54:16.877Z,13.44
2023-03-15T15:56:49.620Z,13.05
2023-03-15T15:59:19.017Z,13.15
2023-03-15T16:01:59.748Z,13.00
2023-03-15T16:04:32.668Z,12.97
2023-03-15T16:07:03.549Z,12.81
2023-03-15T16:09:35.809Z,12.69
2023-03-15T16:12:04.694Z,12.80
2023-03-15T16:14:33.273Z,12.71
2023-03-15T16:17:01.367Z,12.58
2023-03-15T16:19:30.992Z,12.42
2023-03-15T16:21:59.266Z,11.83
2023-03-15T16:24:29.102Z,11.91
2023-03-15T16:27:01.696Z,11.59
2023-03-15T16:29:36.372Z,11.16
2023-03-15T16:32:16.402Z,11.20
2023-03-15T16:34:47.437Z,11.20
2023-03-15T16:37:17.958Z,11.14
2023-03-15T16:39:48.917Z,11.39
2023-03-15T16:42:18.659Z,11.41
2023-03-15T16:44:47.557Z,11.48
2023-03-15T16:47:15.940Z,11.31
2023-03-15T16:49:44.425Z,11.30
2023-03-15T16:52:16.506Z,11.26
2023-03-15T16:54:47.738Z,11.13
2023-03-15T16:57:21.752Z,10.93
2023-03-15T16:59:49.785Z,10.88
2023-03-15T17:02:19.690Z,10.79
2023-03-15T17:04:48.163Z,10.69
2023-03-15T17:07:18.353Z,10.71
2023-03-15T17:09:49.311Z,10.68
2023-03-15T17:12:23.472Z,10.62
2023-03-15T17:14:52.662Z,10.58
2023-03-15T17:17:20.884Z,10.53
2023-03-15T17:19:49.175Z,10.44
2023-03-15T17:22:19.697Z,10.35
2023-03-15T17:24:49.628Z,10.22
2023-03-15T17:27:23.339Z,10.13
2023-03-15T17:29:51.330Z,10.02
2023-03-15T17:32:19.536Z,9.93
2023-03-15T17:34:48.034Z,9.78
2023-03-15T17:37:18.351Z,9.62
2023-03-15T17:39:48.658Z,9.49
2023-03-15T17:42:16.777Z,9.41
2023-03-15T17:44:44.787Z,9.33
2023-03-15T17:47:13.838Z,9.24
2023-03-15T17:49:42.261Z,9.16
2023-03-15T17:52:17.256Z,9.08
2023-03-15T17:54:46.049Z,9.02
2023-03-15T17:57:15.536Z,8.93
2023-03-15T17:59:43.639Z,8.87
2023-03-15T18:02:16.512Z,8.83
2023-03-15T18:04:47.220Z,8.77
2023-03-15T18:07:15.143Z,8.71
2023-03-15T18:09:43.546Z,8.67
2023-03-15T18:12:14.377Z,8.58
2023-03-15T18:14:44.812Z,8.49
2023-03-15T18:17:13.185Z,8.42
2023-03-15T18:19:41.606Z,8.33
2023-03-15T18:22:15.546Z,8.26
2023-03-15T18:24:47.216Z,8.23
2023-03-15T18:27:15.571Z,8.19
2023-03-15T18:29:45.400Z,8.14
2023-03-15T18:32:13.438Z,8.11
2023-03-15T18:34:41.464Z,8.08
2023-03-15T18:37:11.712Z,8.01
2023-03-15T18:39:39.679Z,7.99
2023-03-15T18:42:08.157Z,7.96
2023-03-15T18:44:36.440Z,7.91
2023-03-15T18:47:08.562Z,7.89
2023-03-15T18:49:37.469Z,7.88
2023-03-15T18:52:06.334Z,7.88
2023-03-15T18:54:34.327Z,7.85
2023-03-15T18:57:02.715Z,7.82
2023-03-15T18:59:31.369Z,7.81
2023-03-15T19:01:59.975Z,7.76
2023-03-15T19:04:29.854Z,7.73
2023-03-15T19:06:57.775Z,7.67
2023-03-15T19:09:26.366Z,7.62
2023-03-15T19:11:55.557Z,7.58
2023-03-15T19:14:24.313Z,7.52
2023-03-15T19:16:54.104Z,7.40
2023-03-15T19:19:22.740Z,7.33
2023-03-15T19:21:53.160Z,7.29
2023-03-15T19:24:21.265Z,7.30
2023-03-15T19:26:49.552Z,7.29
2023-03-15T19:29:17.535Z,7.30
2023-03-15T19:31:45.618Z,7.30
2023-03-15T19:34:13.803Z,7.30
2023-03-15T19:36:41.761Z,7.28
2023-03-15T19:39:12.358Z,7.22
2023-03-15T19:41:41.328Z,7.17
2023-03-15T19:44:09.922Z,7.13
2023-03-15T19:46:37.944Z,7.11
2023-03-15T19:49:06.728Z,7.08
2023-03-15T19:51:34.671Z,7.03
2023-03-15T19:54:03.721Z,7.00
2023-03-15T19:56:36.714Z,6.97
2023-03-15T19:59:05.497Z,6.90
2023-03-15T20:01:33.907Z,6.83
2023-03-15T20:04:02.520Z,6.84
2023-03-15T20:06:30.573Z,6.78
2023-03-15T20:08:58.851Z,6.74
2023-03-15T20:11:29.468Z,6.65
2023-03-15T20:13:59.029Z,6.63
2023-03-15T20:16:27.330Z,6.60
2023-03-15T20:18:56.219Z,6.59
2023-03-15T20:21:24.931Z,6.55
2023-03-15T20:23:54.119Z,6.51
2023-03-15T20:26:22.397Z,6.46
2023-03-15T20:28:50.625Z,6.44
2023-03-15T20:31:21.650Z,6.44
2023-03-15T20:33:51.236Z,6.42
2023-03-15T20:36:19.953Z,6.44
2023-03-15T20:38:48.891Z,6.41
2023-03-15T20:41:18.265Z,6.38
2023-03-15T20:43:47.396Z,6.38
2023-03-15T20:46:17.085Z,6.34
2023-03-15T20:48:46.743Z,6.32
2023-03-15T20:51:15.821Z,6.28
2023-03-15T20:53:44.328Z,6.24
2023-03-15T20:56:12.786Z,6.23
2023-03-15T20:58:41.950Z,6.18
2023-03-15T21:01:13.199Z,6.18
2023-03-15T21:03:42.428Z,6.17
2023-03-15T21:06:12.810Z,6.17
2023-03-15T21:08:42.468Z,6.19
2023-03-15T21:11:10.840Z,6.20
2023-03-15T21:13:41.990Z,6.24
2023-03-15T21:16:12.869Z,6.20
2023-03-15T21:18:47.627Z,6.23
2023-03-15T21:21:17.273Z,6.25
2023-03-15T21:23:45.381Z,6.26
2023-03-15T21:26:16.053Z,6.24
2023-03-15T21:28:44.618Z,6.22
2023-03-15T21:31:12.793Z,6.25
2023-03-15T21:33:41.277Z,6.25
2023-03-15T21:36:09.661Z,6.25
2023-03-15T21:38:39.220Z,6.26
2023-03-15T21:41:08.998Z,6.25
2023-03-15T21:43:37.819Z,6.27
2023-03-15T21:46:08.507Z,6.29
2023-03-15T21:48:37.976Z,6.29
2023-03-15T21:51:07.695Z,6.27
2023-03-15T21:53:37.510Z,6.27
2023-03-15T21:56:07.489Z,6.26
2023-03-15T21:58:35.657Z,6.27
2023-03-15T22:01:05.840Z,6.30
2023-03-15T22:03:35.403Z,6.31
2023-03-15T22:06:03.874Z,6.27
2023-03-15T22:08:33.710Z,6.21
2023-03-15T22:11:02.292Z,6.20
2023-03-15T22:13:31.733Z,6.19
2023-03-15T22:16:02.357Z,6.14
2023-03-15T22:18:31.809Z,6.17
2023-03-15T22:20:59.843Z,6.17
2023-03-15T22:23:27.883Z,6.12
2023-03-15T22:25:57.197Z,6.10
2023-03-15T22:28:26.051Z,6.04
2023-03-15T22:30:55.338Z,5.99
2023-03-15T22:33:23.850Z,5.97
2023-03-15T22:35:56.405Z,5.98
2023-03-15T22:38:25.962Z,5.98
2023-03-15T22:41:02.157Z,5.95
2023-03-15T22:43:30.731Z,5.91
2023-03-15T22:46:00.245Z,5.90
2023-03-15T22:48:28.819Z,5.89
2023-03-15T22:50:58.818Z,5.91
2023-03-15T22:53:27.080Z,5.89
2023-03-15T22:55:55.451Z,5.90
2023-03-15T22:58:24.863Z,5.90
2023-03-15T23:00:53.335Z,5.84
2023-03-15T23:03:22.943Z,5.81
2023-03-15T23:05:51.369Z,5.80
2023-03-15T23:08:19.565Z,5.80
2023-03-15T23:10:47.646Z,5.81
2023-03-15T23:13:16.135Z,5.80
2023-03-15T23:15:44.484Z,5.81
2023-03-15T23:18:14.487Z,5.83
2023-03-15T23:20:44.165Z,5.82
2023-03-15T23:23:12.197Z,5.86
2023-03-15T23:25:41.467Z,5.86
2023-03-15T23:28:09.763Z,5.84
2023-03-15T23:30:38.872Z,5.87
2023-03-15T23:33:08.478Z,5.86
2023-03-15T23:35:37.380Z,5.87
2023-03-15T23:38:06.854Z,5.87
2023-03-15T23:40:35.228Z,5.81
2023-03-15T23:43:04.319Z,5.80
2023-03-15T23:45:32.911Z,5.78
2023-03-15T23:48:02.636Z,5.78
2023-03-15T23:50:31.443Z,5.78
2023-03-15T23:52:59.768Z,5.79
2023-03-15T23:55:29.318Z,5.75
2023-03-15T23:57:58.958Z,5.72
